createdAt,value
2018-07-13T14:40:00.823Z,41.30
2018-07-13T14:42:29.429Z,41.30
2018-07-13T14:44:57.943Z,41.60
2018-07-13T14:47:26.447Z,41.60
2018-07-13T14:49:54.972Z,41.80
2018-07-13T14:52:23.467Z,42.10
2018-07-13T14:54:51.969Z,42.50
2018-07-13T14:57:20.519Z,42.80
2018-07-13T14:59:49.506Z,43.10
2018-07-13T15:02:17.985Z,43.40
2018-07-13T15:04:47.610Z,43.10
2018-07-13T15:07:16.470Z,42.40
2018-07-13T15:09:44.942Z,39.80
2018-07-13T15:12:13.471Z,40.50
2018-07-13T15:14:41.996Z,41.60
2018-07-13T15:17:12.195Z,42.40
2018-07-13T15:19:40.702Z,43.00
2018-07-13T15:22:09.197Z,41.00
2018-07-13T15:24:37.729Z,42.30
2018-07-13T15:27:06.996Z,42.90
2018-07-13T15:29:35.733Z,43.30
2018-07-13T15:32:04.351Z,43.80
2018-07-13T15:34:32.866Z,43.80
2018-07-13T15:37:01.526Z,44.00
2018-07-13T15:39:30.064Z,44.60
2018-07-13T15:41:58.583Z,44.70
2018-07-13T15:44:27.100Z,44.00
2018-07-13T15:46:55.601Z,43.60
2018-07-13T15:49:24.135Z,44.10
2018-07-13T15:51:52.827Z,44.70
2018-07-13T15:54:21.390Z,45.10
2018-07-13T15:56:50.125Z,45.10
2018-07-13T15:59:18.644Z,44.90
2018-07-13T16:01:47.504Z,45.10
2018-07-13T16:04:16.026Z,45.20
2018-07-13T16:06:44.631Z,45.30
2018-07-13T16:09:13.198Z,45.10
2018-07-13T16:11:41.696Z,45.40
2018-07-13T16:14:10.147Z,45.50
2018-07-13T16:16:38.654Z,45.00
2018-07-13T16:19:08.447Z,45.10
2018-07-13T16:21:37.386Z,45.30
2018-07-13T16:24:05.882Z,45.30
2018-07-13T16:26:34.366Z,45.10
2018-07-13T16:29:02.902Z,43.40
2018-07-13T16:33:59.631Z,39.30
2018-07-13T16:36:28.285Z,38.00
2018-07-13T16:38:56.762Z,36.80
2018-07-13T16:41:25.288Z,35.60
2018-07-13T16:43:53.759Z,34.80
2018-07-13T16:46:22.311Z,34.10
2018-07-13T16:48:50.802Z,33.40
2018-07-13T16:51:19.324Z,32.80
2018-07-13T16:53:47.862Z,32.20
2018-07-13T16:56:16.358Z,31.70
2018-07-13T16:58:45.083Z,31.40
2018-07-13T17:01:13.981Z,31.10
2018-07-13T17:03:42.487Z,30.80
2018-07-13T17:06:10.995Z,30.50
2018-07-13T17:08:40.020Z,30.30
2018-07-13T17:11:08.562Z,30.10
2018-07-13T17:13:37.102Z,29.90
2018-07-13T17:16:05.876Z,29.70
2018-07-13T17:18:34.412Z,29.50
2018-07-13T17:21:02.951Z,29.40
2018-07-13T17:23:31.498Z,29.20
2018-07-13T17:26:00.431Z,29.10
2018-07-13T17:28:28.965Z,29.00
2018-07-13T17:30:57.529Z,28.90
2018-07-13T17:33:26.562Z,28.80
2018-07-13T17:35:55.048Z,28.60
2018-07-13T17:38:23.548Z,28.50
2018-07-13T17:40:52.335Z,28.40
2018-07-13T17:43:20.917Z,28.30
2018-07-13T17:45:49.415Z,28.20
2018-07-13T17:48:17.933Z,28.10
2018-07-13T17:50:47.330Z,28.00
2018-07-13T17:53:15.857Z,27.90
2018-07-13T17:55:44.694Z,27.80
2018-07-13T17:58:13.191Z,27.80
2018-07-13T18:00:41.752Z,27.70
2018-07-13T18:03:10.445Z,27.60
2018-07-13T18:05:38.969Z,27.50
2018-07-13T18:08:07.546Z,27.50
2018-07-13T18:10:36.074Z,27.40
2018-07-13T18:13:04.587Z,27.30
2018-07-13T18:15:33.152Z,27.30
2018-07-13T18:18:03.290Z,27.20
2018-07-13T18:20:33.995Z,27.10
2018-07-13T18:23:02.502Z,27.10
2018-07-13T18:25:31.016Z,27.00
2018-07-13T18:27:59.818Z,26.90
2018-07-13T18:30:28.300Z,26.80
2018-07-13T18:32:56.901Z,26.70
2018-07-13T18:35:25.373Z,26.70
2018-07-13T18:37:53.875Z,26.60
2018-07-13T18:40:22.410Z,26.40
2018-07-13T18:42:50.891Z,26.40
2018-07-13T18:45:19.451Z,26.30
2018-07-13T18:47:47.960Z,26.20
2018-07-13T18:50:16.486Z,26.10
2018-07-13T18:52:45.015Z,26.10
2018-07-13T18:55:13.537Z,26.00
2018-07-13T18:57:42.151Z,25.90
2018-07-13T19:00:10.683Z,25.80
2018-07-13T19:02:39.284Z,25.70
2018-07-13T19:05:07.832Z,25.70
2018-07-13T19:07:42.939Z,25.60
2018-07-13T19:10:11.455Z,25.50
2018-07-13T19:12:39.979Z,25.40
2018-07-13T19:15:08.628Z,25.30
2018-07-13T19:17:37.134Z,25.20
2018-07-13T19:20:06.314Z,25.10
2018-07-13T19:22:34.835Z,25.00
2018-07-13T19:25:03.429Z,24.90
2018-07-13T19:27:32.222Z,24.90
2018-07-13T19:30:00.694Z,24.80
2018-07-13T19:32:29.202Z,24.70
2018-07-13T19:34:57.709Z,24.70
2018-07-13T19:37:26.254Z,24.60
2018-07-13T19:39:54.819Z,24.50
2018-07-13T19:42:23.560Z,24.50
2018-07-13T19:44:52.619Z,24.40
2018-07-13T19:47:21.841Z,24.30
2018-07-13T19:49:50.416Z,24.30
2018-07-13T19:52:18.946Z,24.20
2018-07-13T19:57:15.881Z,24.10
2018-07-13T19:59:44.287Z,24.10
2018-07-13T20:02:12.797Z,23.90
2018-07-13T20:04:41.452Z,23.90
2018-07-13T20:07:09.979Z,23.80
2018-07-13T20:09:38.687Z,23.80
2018-07-13T20:12:07.699Z,23.70
2018-07-13T20:14:36.237Z,23.60
2018-07-13T20:17:05.183Z,23.60
2018-07-13T20:19:33.771Z,23.50
2018-07-13T20:22:02.360Z,23.50
2018-07-13T20:24:30.909Z,23.40
2018-07-13T20:26:59.482Z,23.40
2018-07-13T20:29:28.103Z,23.30
2018-07-13T20:31:58.518Z,23.30
2018-07-13T20:34:28.420Z,23.30
2018-07-13T20:36:56.995Z,23.30
2018-07-13T20:39:25.636Z,23.30
2018-07-13T20:41:54.325Z,23.40
2018-07-13T20:44:22.947Z,23.40
2018-07-13T20:46:51.536Z,23.30
2018-07-13T20:49:20.243Z,23.40
2018-07-13T20:51:48.810Z,23.40
2018-07-13T20:54:17.624Z,23.40
2018-07-13T20:56:46.424Z,23.40
2018-07-13T21:01:43.479Z,23.30
2018-07-13T21:04:12.053Z,23.30
2018-07-13T21:06:40.659Z,23.30
2018-07-13T21:09:09.164Z,23.20
2018-07-13T21:11:37.724Z,23.20
2018-07-13T21:16:34.517Z,23.20
2018-07-13T21:19:03.091Z,23.10
2018-07-13T21:21:31.701Z,23.10
2018-07-13T21:24:00.854Z,23.10
2018-07-13T21:26:29.410Z,23.10
2018-07-13T21:28:58.154Z,23.10
2018-07-13T21:31:33.323Z,23.10
2018-07-13T21:34:01.815Z,23.10
2018-07-13T21:36:30.331Z,23.00
2018-07-13T21:38:58.956Z,23.00
2018-07-13T21:41:27.445Z,22.90
2018-07-13T21:43:55.957Z,22.90
2018-07-13T21:46:24.471Z,22.80
2018-07-13T21:48:54.403Z,22.70
2018-07-13T21:51:22.918Z,22.70
2018-07-13T21:53:51.550Z,22.60
2018-07-13T21:56:20.194Z,22.60
2018-07-13T21:58:48.771Z,22.60
2018-07-13T22:01:17.280Z,22.50
2018-07-13T22:03:45.807Z,22.40
2018-07-13T22:06:14.298Z,22.40
2018-07-13T22:08:42.814Z,22.30
2018-07-13T22:11:11.329Z,22.20
2018-07-13T22:13:39.866Z,22.20
2018-07-13T22:16:08.391Z,22.10
2018-07-13T22:18:37.401Z,22.10
2018-07-13T22:21:05.959Z,22.10
2018-07-13T22:23:34.491Z,22.00
2018-07-13T22:26:03.023Z,22.00
2018-07-13T22:28:31.828Z,21.90
2018-07-13T22:31:00.961Z,21.90
2018-07-13T22:33:29.482Z,21.80
2018-07-13T22:38:26.140Z,21.80
2018-07-13T22:40:54.630Z,21.70
2018-07-13T22:43:23.138Z,21.60
2018-07-13T22:45:52.295Z,21.60
2018-07-13T22:48:20.842Z,21.50
2018-07-13T22:50:49.387Z,21.50
2018-07-13T22:53:17.930Z,21.40
2018-07-13T22:55:46.410Z,21.40
2018-07-13T22:58:14.945Z,21.40
2018-07-13T23:00:43.446Z,21.40
2018-07-13T23:03:12.194Z,21.40
2018-07-13T23:05:40.714Z,21.30
2018-07-13T23:08:09.207Z,21.20
2018-07-13T23:10:37.790Z,21.20
2018-07-13T23:13:06.286Z,21.10
2018-07-13T23:15:34.794Z,21.10
2018-07-13T23:18:03.278Z,21.00
2018-07-13T23:20:31.802Z,21.10
2018-07-13T23:23:00.324Z,21.00
2018-07-13T23:27:57.949Z,21.00
2018-07-13T23:30:27.426Z,21.10
2018-07-13T23:32:55.889Z,21.00
2018-07-13T23:35:24.410Z,21.00
2018-07-13T23:37:53.042Z,21.00
2018-07-13T23:40:21.785Z,20.90
2018-07-13T23:42:50.259Z,20.90
2018-07-13T23:45:19.406Z,20.90
2018-07-13T23:47:47.862Z,20.90
2018-07-13T23:50:16.370Z,20.80
2018-07-13T23:52:44.863Z,20.80
2018-07-13T23:55:13.365Z,20.80
2018-07-13T23:57:41.869Z,20.80
